Time;durP1;ratioP1;P1;durP2;ratioP2;P2;SDS_P1;SDS_P2;PMS_P1;PMS_P2;Temp;Humidity;BMP_temperature;BMP_pressure;BME280_temperature;BME280_humidity;BME280_pressure;Samples;Min_cycle;Max_cycle;Signal;HPM_P1;HPM_P2
2022/05/20 00:00:07;;;;;;;10.10;7.90;;;16.60;99.90;;;;;;5020129;28;20948;-75
2022/05/20 00:02:34;;;;;;;16.60;8.50;;;16.60;99.90;;;;;;5019511;28;20843;-74
2022/05/20 00:05:01;;;;;;;16.90;7.90;;;16.60;99.90;;;;;;5014231;28;20454;-75
2022/05/20 00:07:27;;;;;;;12.60;7.23;;;16.60;99.90;;;;;;5015044;28;20512;-74
2022/05/20 00:09:54;;;;;;;10.20;7.80;;;16.60;99.90;;;;;;5024061;28;20993;-75
2022/05/20 00:12:22;;;;;;;15.13;8.30;;;16.70;99.90;;;;;;5032468;28;20501;-75
2022/05/20 00:14:49;;;;;;;10.50;8.37;;;16.70;99.90;;;;;;5032046;28;20449;-75
2022/05/20 00:17:15;;;;;;;14.03;7.60;;;16.60;99.90;;;;;;5019555;28;20433;-75
2022/05/20 00:19:42;;;;;;;10.83;8.03;;;16.60;99.90;;;;;;5019124;28;20546;-75
2022/05/20 00:22:10;;;;;;;16.10;8.50;;;16.60;99.90;;;;;;5029083;28;20864;-74
2022/05/20 00:25:45;;;;;;;11.97;7.93;;;16.50;99.90;;;;;;5025010;28;20434;-74
2022/05/20 00:27:25;;;;;;;13.73;7.33;;;16.50;99.90;;;;;;5020138;28;20424;-75
2022/05/20 00:29:52;;;;;;;11.13;7.67;;;16.40;99.90;;;;;;5021841;28;20453;-75
2022/05/20 00:32:19;;;;;;;8.60;7.60;;;16.40;99.90;;;;;;5032156;28;20469;-75
2022/05/20 00:34:45;;;;;;;11.17;7.63;;;16.30;99.90;;;;;;5032890;28;20427;-75
2022/05/20 00:37:12;;;;;;;10.67;7.40;;;16.30;99.90;;;;;;5034063;28;20457;-74
2022/05/20 00:39:39;;;;;;;14.40;8.40;;;16.30;99.90;;;;;;5033834;28;20991;-74
2022/05/20 00:42:12;;;;;;;12.80;7.40;;;16.30;99.90;;;;;;5034069;28;20469;-75
2022/05/20 00:44:40;;;;;;;15.17;8.20;;;16.30;99.90;;;;;;5033385;28;20423;-75
2022/05/20 00:47:08;;;;;;;10.17;8.17;;;16.30;99.90;;;;;;5032301;28;20453;-74
2022/05/20 00:49:36;;;;;;;9.90;7.90;;;16.30;99.90;;;;;;5033160;28;20424;-74
2022/05/20 00:52:06;;;;;;;18.40;8.13;;;16.20;99.90;;;;;;5033539;28;21010;-75
2022/05/20 00:54:37;;;;;;;12.50;7.47;;;16.20;99.90;;;;;;5033039;28;20814;-74
2022/05/20 00:57:08;;;;;;;11.40;7.80;;;16.20;99.90;;;;;;5033780;28;20495;-75
2022/05/20 00:59:37;;;;;;;12.03;7.40;;;16.20;99.90;;;;;;5033516;28;20498;-74
2022/05/20 01:02:14;;;;;;;9.10;8.20;;;16.20;99.90;;;;;;5032354;28;20531;-74
2022/05/20 01:04:42;;;;;;;11.63;8.27;;;16.10;99.90;;;;;;5020105;28;20478;-75
2022/05/20 01:07:10;;;;;;;12.80;7.90;;;16.10;99.90;;;;;;5013947;28;20421;-74
2022/05/20 01:09:37;;;;;;;10.07;7.80;;;16.00;99.90;;;;;;5015368;28;20458;-74
2022/05/20 01:12:05;;;;;;;14.07;8.27;;;16.00;99.90;;;;;;5014626;28;20459;-75
2022/05/20 01:14:32;;;;;;;14.53;8.20;;;16.00;99.90;;;;;;5013169;28;20425;-75
2022/05/20 01:16:59;;;;;;;14.43;7.80;;;16.00;99.90;;;;;;5012762;28;20428;-75
2022/05/20 01:19:35;;;;;;;8.53;7.03;;;16.00;99.90;;;;;;5024596;28;21023;-74
2022/05/20 01:22:02;;;;;;;13.60;7.03;;;16.00;99.90;;;;;;5013291;28;20466;-74
2022/05/20 01:24:30;;;;;;;13.90;7.43;;;16.00;99.90;;;;;;5017669;28;20425;-74
2022/05/20 01:26:57;;;;;;;11.57;7.40;;;16.00;99.90;;;;;;5013276;28;20428;-74
2022/05/20 01:29:25;;;;;;;10.83;7.00;;;16.00;99.90;;;;;;5013205;28;20429;-74
2022/05/20 01:31:51;;;;;;;10.80;8.00;;;16.00;99.90;;;;;;5012938;28;20466;-75
2022/05/20 01:34:20;;;;;;;8.77;7.80;;;15.90;99.90;;;;;;5011892;28;20862;-74
2022/05/20 01:36:47;;;;;;;13.50;7.73;;;15.90;99.90;;;;;;5024355;28;20518;-75
2022/05/20 01:39:13;;;;;;;9.83;7.50;;;15.90;99.90;;;;;;5024169;28;20481;-74
2022/05/20 01:41:48;;;;;;;10.70;7.60;;;15.80;99.90;;;;;;5014423;28;20518;-75
2022/05/20 01:44:23;;;;;;;11.33;8.13;;;15.80;99.90;;;;;;5012739;28;20461;-75
2022/05/20 01:47:02;;;;;;;11.03;8.10;;;15.80;99.90;;;;;;5023235;28;21145;-75
2022/05/20 01:49:37;;;;;;;13.73;8.07;;;15.80;99.90;;;;;;5030920;28;20715;-75
2022/05/20 01:52:11;;;;;;;11.40;9.13;;;15.80;99.90;;;;;;5013094;28;20477;-75
2022/05/20 01:54:47;;;;;;;17.33;9.23;;;15.80;99.90;;;;;;5012468;28;20432;-75
2022/05/20 01:57:21;;;;;;;15.10;9.77;;;15.70;99.90;;;;;;5014204;28;20454;-75
2022/05/20 01:59:53;;;;;;;16.57;9.60;;;15.70;99.90;;;;;;5029853;28;21028;-75
2022/05/20 02:02:25;;;;;;;15.43;9.30;;;15.60;99.90;;;;;;5030333;28;20523;-75
2022/05/20 02:04:57;;;;;;;10.63;9.50;;;15.60;99.90;;;;;;5031398;28;20464;-75
2022/05/20 02:07:28;;;;;;;14.60;10.20;;;15.60;99.90;;;;;;5023408;28;20429;-74
2022/05/20 02:10:00;;;;;;;19.13;10.50;;;15.50;99.90;;;;;;5016246;28;20428;-75
2022/05/20 02:12:33;;;;;;;20.13;11.00;;;15.50;99.90;;;;;;5031040;28;20467;-74
2022/05/20 02:15:07;;;;;;;18.10;10.60;;;15.60;99.90;;;;;;5030114;28;20511;-74
2022/05/20 02:17:36;;;;;;;17.83;10.50;;;15.50;99.90;;;;;;5031706;28;20431;-75
2022/05/20 02:20:07;;;;;;;19.73;11.07;;;15.50;99.90;;;;;;5023534;28;20460;-74
2022/05/20 02:22:38;;;;;;;14.97;9.70;;;15.50;99.90;;;;;;5022305;28;20561;-74
2022/05/20 02:25:07;;;;;;;12.53;9.80;;;15.50;99.90;;;;;;5016072;28;20437;-75
2022/05/20 02:27:41;;;;;;;20.83;11.00;;;15.40;99.90;;;;;;5029264;28;20428;-75
2022/05/20 02:30:11;;;;;;;47.60;12.50;;;15.40;99.90;;;;;;5024208;28;20506;-74
2022/05/20 02:32:44;;;;;;;12.47;10.07;;;15.40;99.90;;;;;;5015070;28;21042;-74
2022/05/20 02:35:11;;;;;;;17.83;11.40;;;15.30;99.90;;;;;;5011025;28;20483;-74
2022/05/20 02:37:39;;;;;;;14.57;11.37;;;15.30;99.90;;;;;;5012119;28;20429;-74
2022/05/20 02:40:09;;;;;;;17.67;11.70;;;15.30;99.90;;;;;;5016067;28;21006;-74
2022/05/20 02:42:37;;;;;;;17.53;10.50;;;15.30;99.90;;;;;;5025136;28;20810;-74
2022/05/20 02:45:05;;;;;;;14.87;11.40;;;15.20;99.90;;;;;;5030949;28;20584;-74
2022/05/20 02:47:34;;;;;;;15.13;11.93;;;15.30;99.90;;;;;;5030337;28;20428;-74
2022/05/20 02:50:01;;;;;;;17.30;11.30;;;15.30;99.90;;;;;;5030661;28;20485;-75
2022/05/20 02:52:28;;;;;;;28.10;12.73;;;15.20;99.90;;;;;;5016052;28;20452;-74
2022/05/20 02:54:54;;;;;;;49.97;13.63;;;15.20;99.90;;;;;;5011432;28;20432;-74
2022/05/20 02:57:21;;;;;;;19.30;13.10;;;15.20;99.90;;;;;;5012877;28;20514;-75
2022/05/20 03:05:19;;;;;;;26.60;12.90;;;15.30;99.90;;;;;;5018000;28;20415;-74
2022/05/20 03:07:45;;;;;;;24.63;14.00;;;15.30;99.90;;;;;;5029520;28;20498;-74
2022/05/20 03:10:13;;;;;;;25.83;14.13;;;15.20;99.90;;;;;;5025558;28;20431;-74
2022/05/20 03:12:40;;;;;;;24.57;14.40;;;15.20;99.90;;;;;;5030376;28;21242;-75
2022/05/20 03:15:11;;;;;;;34.77;15.80;;;15.20;99.90;;;;;;5029667;28;20481;-75
2022/05/20 03:17:38;;;;;;;24.20;14.60;;;15.20;99.90;;;;;;5026542;28;20548;-74
2022/05/20 03:20:08;;;;;;;19.87;14.83;;;15.20;99.90;;;;;;5011921;28;20478;-74
2022/05/20 03:22:35;;;;;;;21.13;13.50;;;15.20;99.90;;;;;;5018707;28;20519;-74
2022/05/20 03:25:04;;;;;;;17.23;13.17;;;15.30;99.90;;;;;;5023693;28;20451;-74
2022/05/20 03:27:31;;;;;;;19.50;13.73;;;15.30;99.90;;;;;;5018867;28;20524;-74
2022/05/20 03:29:57;;;;;;;24.70;15.00;;;15.30;99.90;;;;;;5015577;28;20446;-74
2022/05/20 03:32:25;;;;;;;27.53;14.70;;;15.30;99.90;;;;;;5010068;28;20994;-75
2022/05/20 03:34:52;;;;;;;19.60;13.90;;;15.30;99.90;;;;;;5009086;28;20454;-75
2022/05/20 03:37:19;;;;;;;18.80;14.90;;;15.40;99.90;;;;;;5018787;28;20490;-75
2022/05/20 03:39:45;;;;;;;25.23;14.63;;;15.40;99.90;;;;;;5022267;28;20451;-74
2022/05/20 03:42:12;;;;;;;14.13;12.07;;;15.40;99.90;;;;;;5014282;28;20448;-74
2022/05/20 03:44:39;;;;;;;28.00;13.90;;;15.40;99.90;;;;;;5011111;28;20474;-74
2022/05/20 03:47:05;;;;;;;22.07;15.10;;;15.40;99.90;;;;;;5011448;28;20855;-75
2022/05/20 03:49:33;;;;;;;57.57;16.50;;;15.40;99.90;;;;;;5012702;28;20925;-74
2022/05/20 03:52:00;;;;;;;29.90;15.40;;;15.40;99.90;;;;;;5029743;28;20448;-74
2022/05/20 03:54:32;;;;;;;19.40;14.90;;;15.50;99.90;;;;;;5029003;28;20461;-74
2022/05/20 03:57:00;;;;;;;18.73;15.40;;;15.50;99.90;;;;;;5017335;28;20429;-75
2022/05/20 03:59:27;;;;;;;19.13;14.23;;;15.60;99.90;;;;;;5013310;28;20579;-75
2022/05/20 04:01:59;;;;;;;20.00;15.40;;;15.60;99.90;;;;;;5011238;28;20482;-74
2022/05/20 04:04:27;;;;;;;24.33;15.57;;;15.60;99.90;;;;;;5014038;28;20454;-74
2022/05/20 04:06:55;;;;;;;32.80;17.60;;;15.60;99.90;;;;;;5030254;28;20460;-74
2022/05/20 04:09:22;;;;;;;41.87;16.50;;;15.60;99.90;;;;;;5030377;28;20478;-74
2022/05/20 04:11:56;;;;;;;27.00;16.97;;;15.60;99.90;;;;;;5014109;28;20878;-74
2022/05/20 04:14:23;;;;;;;55.57;17.97;;;15.60;99.90;;;;;;5029797;28;20510;-74
2022/05/20 04:16:57;;;;;;;26.50;17.70;;;15.60;99.90;;;;;;5024637;28;20860;-74
2022/05/20 04:19:24;;;;;;;40.90;18.90;;;15.60;99.90;;;;;;5022643;28;20470;-74
2022/05/20 04:21:51;;;;;;;32.33;18.20;;;15.60;99.90;;;;;;5016294;28;20444;-75
2022/05/20 04:24:19;;;;;;;24.90;17.40;;;15.70;99.90;;;;;;5026949;28;20843;-75
2022/05/20 04:26:46;;;;;;;25.73;16.83;;;15.70;99.90;;;;;;5014532;28;20929;-74
2022/05/20 04:29:13;;;;;;;30.87;17.53;;;15.70;99.90;;;;;;5014475;28;20454;-75
2022/05/20 04:31:44;;;;;;;34.37;17.03;;;15.70;99.90;;;;;;5015963;28;20448;-75
2022/05/20 04:34:11;;;;;;;25.90;16.87;;;15.70;99.90;;;;;;5013191;28;20440;-75
2022/05/20 04:36:38;;;;;;;22.37;16.77;;;15.70;99.90;;;;;;5014525;28;20429;-74
2022/05/20 04:39:05;;;;;;;24.57;16.10;;;15.70;99.90;;;;;;5014588;28;20454;-74
2022/05/20 04:47:05;;;;;;;30.63;14.77;;;15.50;99.90;;;;;;5032676;28;20445;-74
2022/05/20 04:49:33;;;;;;;19.43;14.90;;;15.40;99.90;;;;;;5028682;28;20518;-74
2022/05/20 04:52:01;;;;;;;20.93;15.30;;;15.40;99.90;;;;;;5020446;28;20458;-75
2022/05/20 04:57:24;;;;;;;20.90;16.63;;;15.30;99.90;;;;;;5032467;28;20982;-75
2022/05/20 04:59:52;;;;;;;19.20;14.03;;;15.40;99.90;;;;;;5014984;28;20464;-74
2022/05/20 05:02:19;;;;;;;19.33;14.13;;;15.40;99.90;;;;;;5014617;28;20532;-75
2022/05/20 05:04:46;;;;;;;20.03;14.40;;;15.40;99.90;;;;;;5013643;28;20462;-75
2022/05/20 05:07:13;;;;;;;18.80;13.30;;;15.40;99.90;;;;;;5013761;28;20432;-74
2022/05/20 05:09:41;;;;;;;16.60;11.67;;;15.50;99.90;;;;;;5015911;28;20500;-74
2022/05/20 05:12:09;;;;;;;16.73;12.63;;;15.50;99.90;;;;;;5023550;28;20461;-74
2022/05/20 05:14:38;;;;;;;15.37;12.30;;;15.60;99.90;;;;;;5013170;28;20432;-74
2022/05/20 05:17:07;;;;;;;15.70;11.30;;;15.60;99.90;;;;;;5020623;28;20573;-75
2022/05/20 05:19:36;;;;;;;14.90;11.23;;;15.60;99.90;;;;;;5014396;28;20458;-75
2022/05/20 05:22:03;;;;;;;13.73;10.73;;;15.70;99.90;;;;;;5024493;28;20455;-74
2022/05/20 05:24:30;;;;;;;14.27;11.00;;;15.60;99.90;;;;;;5013908;28;20448;-74
2022/05/20 05:26:56;;;;;;;13.57;11.07;;;15.60;99.90;;;;;;5031213;28;20519;-74
2022/05/20 05:29:23;;;;;;;15.33;11.80;;;15.70;99.90;;;;;;5018180;28;20993;-74
2022/05/20 05:31:51;;;;;;;19.10;12.00;;;15.80;99.90;;;;;;5027587;28;20869;-74
2022/05/20 05:34:18;;;;;;;15.00;11.60;;;15.80;99.90;;;;;;5032624;28;20428;-74
2022/05/20 05:36:45;;;;;;;15.73;11.20;;;15.90;99.90;;;;;;5032571;28;20970;-74
2022/05/20 05:39:11;;;;;;;14.20;11.80;;;16.00;99.90;;;;;;5033056;28;20454;-74
2022/05/20 05:41:38;;;;;;;14.53;11.67;;;16.00;99.90;;;;;;5033124;28;20487;-74
2022/05/20 05:44:06;;;;;;;14.67;11.53;;;16.00;99.90;;;;;;5032532;28;20449;-74
2022/05/20 05:46:32;;;;;;;14.90;11.90;;;16.10;99.90;;;;;;5032964;28;20431;-75
2022/05/20 05:49:00;;;;;;;16.60;11.10;;;16.20;99.90;;;;;;5032513;28;20445;-74
2022/05/20 05:51:27;;;;;;;13.60;11.70;;;16.20;99.90;;;;;;5032731;28;20440;-74
2022/05/20 05:53:56;;;;;;;14.87;11.70;;;16.20;99.90;;;;;;5030718;28;20482;-75
2022/05/20 05:56:23;;;;;;;12.90;11.27;;;16.20;99.90;;;;;;5013036;28;20483;-74
2022/05/20 05:58:50;;;;;;;14.13;12.13;;;16.30;99.90;;;;;;5019789;28;20432;-74
2022/05/20 06:01:17;;;;;;;17.63;11.20;;;16.40;99.90;;;;;;5030636;28;20492;-75
2022/05/20 06:03:43;;;;;;;16.73;11.00;;;16.50;99.90;;;;;;5021544;28;20942;-74
2022/05/20 06:06:11;;;;;;;14.00;11.63;;;16.60;99.90;;;;;;5012680;28;20428;-74
2022/05/20 06:08:38;;;;;;;12.67;11.10;;;16.70;99.90;;;;;;5012779;28;20459;-74
2022/05/20 06:11:06;;;;;;;15.77;11.23;;;16.80;99.90;;;;;;5011400;28;20933;-74
2022/05/20 06:13:32;;;;;;;17.70;12.23;;;16.90;99.90;;;;;;5018132;28;20454;-75
2022/05/20 06:15:59;;;;;;;11.73;10.47;;;17.00;99.90;;;;;;5030895;28;20507;-74
2022/05/20 06:18:27;;;;;;;12.73;11.40;;;17.10;99.90;;;;;;5032222;28;20928;-75
2022/05/20 06:20:54;;;;;;;14.57;11.60;;;17.20;99.90;;;;;;5022465;28;20482;-74
2022/05/20 06:23:22;;;;;;;13.40;12.03;;;17.30;99.90;;;;;;5017144;28;20711;-75
2022/05/20 06:25:49;;;;;;;16.37;11.97;;;17.30;99.90;;;;;;5031652;28;20508;-75
2022/05/20 06:28:17;;;;;;;16.50;12.90;;;17.30;99.90;;;;;;5024922;28;20883;-74
2022/05/20 06:30:45;;;;;;;15.87;12.10;;;17.30;99.90;;;;;;5030201;28;20495;-74
2022/05/20 06:33:12;;;;;;;14.17;11.60;;;17.20;99.90;;;;;;5026800;28;20528;-75
2022/05/20 06:41:09;;;;;;;16.93;12.70;;;17.20;99.90;;;;;;5022414;28;20488;-75
2022/05/20 06:43:36;;;;;;;15.43;11.60;;;17.20;99.90;;;;;;5017513;28;20458;-74
2022/05/20 06:46:04;;;;;;;19.17;12.00;;;17.20;99.90;;;;;;5026329;28;20563;-75
2022/05/20 06:48:40;;;;;;;15.63;11.50;;;17.10;99.90;;;;;;5014420;28;20833;-74
2022/05/20 06:51:07;;;;;;;14.67;11.63;;;17.20;99.90;;;;;;5026952;28;20449;-75
2022/05/20 06:53:35;;;;;;;14.37;12.60;;;17.20;99.90;;;;;;5028552;28;20453;-75
2022/05/20 06:56:03;;;;;;;16.93;13.30;;;17.20;99.90;;;;;;5030806;28;20896;-75
2022/05/20 06:58:30;;;;;;;16.60;12.47;;;17.20;99.90;;;;;;5017176;28;20462;-75
2022/05/20 07:00:57;;;;;;;15.27;12.00;;;17.30;99.90;;;;;;5012233;28;20480;-75
2022/05/20 07:03:24;;;;;;;17.43;14.07;;;17.30;99.90;;;;;;5011147;28;20465;-74
2022/05/20 07:05:51;;;;;;;16.40;14.43;;;17.30;99.90;;;;;;5011679;28;20458;-74
2022/05/20 07:08:17;;;;;;;17.33;13.83;;;17.40;99.90;;;;;;5020109;28;20450;-75
2022/05/20 07:10:46;;;;;;;15.83;12.00;;;17.50;99.90;;;;;;5018718;28;20461;-75
2022/05/20 07:13:12;;;;;;;14.37;12.87;;;17.50;99.90;;;;;;5010769;28;20913;-75
2022/05/20 07:15:40;;;;;;;17.63;12.30;;;17.60;99.90;;;;;;5026157;28;20956;-75
2022/05/20 07:18:07;;;;;;;17.63;13.30;;;17.70;99.90;;;;;;5026012;28;20445;-75
2022/05/20 07:20:34;;;;;;;18.37;13.30;;;17.90;99.90;;;;;;5027320;28;20576;-74
2022/05/20 07:23:00;;;;;;;23.63;13.83;;;17.90;99.90;;;;;;5026877;28;20522;-75
2022/05/20 07:25:27;;;;;;;16.20;12.40;;;18.00;99.90;;;;;;5026237;28;20457;-75
2022/05/20 07:27:59;;;;;;;16.87;13.37;;;18.10;99.90;;;;;;5025813;28;20445;-76
2022/05/20 07:30:26;;;;;;;17.50;13.30;;;18.20;99.90;;;;;;5026660;28;20536;-76
2022/05/20 07:32:53;;;;;;;14.67;13.10;;;18.50;99.90;;;;;;5026688;28;20476;-76
2022/05/20 07:35:21;;;;;;;17.00;12.13;;;18.60;99.90;;;;;;5024019;28;20462;-76
2022/05/20 07:37:49;;;;;;;18.97;13.80;;;18.70;99.90;;;;;;5027442;28;20461;-76
2022/05/20 07:40:18;;;;;;;13.37;10.90;;;19.00;99.90;;;;;;5027345;28;20830;-76
2022/05/20 07:42:44;;;;;;;13.50;10.80;;;19.40;99.90;;;;;;5027190;28;20516;-76
2022/05/20 07:45:13;;;;;;;13.90;11.03;;;19.70;99.90;;;;;;5025982;28;20591;-76
2022/05/20 07:47:40;;;;;;;14.90;10.90;;;20.00;99.90;;;;;;5026274;28;20458;-76
2022/05/20 07:50:08;;;;;;;13.07;10.13;;;20.30;99.90;;;;;;5027328;28;20866;-76
2022/05/20 07:55:24;;;;;;;11.53;9.90;;;20.50;99.90;;;;;;5026708;28;20460;-74
2022/05/20 07:57:51;;;;;;;12.07;10.80;;;20.70;99.90;;;;;;5026871;28;20949;-75
2022/05/20 08:00:20;;;;;;;13.73;8.97;;;20.70;99.90;;;;;;5027508;28;20457;-75
2022/05/20 08:02:47;;;;;;;14.20;8.90;;;20.60;99.90;;;;;;5031192;28;20469;-76
2022/05/20 08:05:14;;;;;;;14.27;9.30;;;20.70;99.90;;;;;;5028632;28;20453;-75
2022/05/20 08:07:44;;;;;;;15.83;10.60;;;20.80;99.90;;;;;;5031069;28;20445;-76
2022/05/20 08:10:13;;;;;;;10.13;8.70;;;20.90;99.90;;;;;;5030796;28;20835;-75
2022/05/20 08:12:40;;;;;;;11.70;9.00;;;21.10;99.90;;;;;;5031445;28;20485;-75
2022/05/20 08:15:09;;;;;;;10.53;9.43;;;21.20;99.90;;;;;;5030795;28;20457;-75
2022/05/20 08:17:40;;;;;;;12.30;9.93;;;21.10;99.90;;;;;;5029577;28;20460;-75
2022/05/20 08:20:09;;;;;;;12.63;9.90;;;20.90;99.90;;;;;;5030170;28;20449;-75
2022/05/20 08:22:36;;;;;;;14.50;10.50;;;20.70;99.90;;;;;;5031249;28;20477;-76
2022/05/20 08:25:03;;;;;;;14.93;10.33;;;20.50;99.90;;;;;;5029904;28;20826;-75
2022/05/20 08:27:31;;;;;;;17.93;11.40;;;20.30;99.90;;;;;;5030361;28;20445;-75
2022/05/20 08:29:58;;;;;;;14.13;11.47;;;20.20;99.90;;;;;;5028194;28;20869;-75
2022/05/20 08:32:25;;;;;;;14.97;12.07;;;20.00;99.90;;;;;;5030837;28;20816;-75
2022/05/20 08:34:53;;;;;;;14.20;11.27;;;19.80;99.90;;;;;;5030222;28;20510;-74
2022/05/20 08:37:19;;;;;;;19.80;12.80;;;19.60;99.90;;;;;;5030748;28;20461;-75
2022/05/20 08:39:47;;;;;;;15.23;11.27;;;19.60;99.90;;;;;;5029609;28;20976;-75
2022/05/20 08:42:16;;;;;;;12.63;11.30;;;19.70;99.90;;;;;;5030575;28;20489;-75
2022/05/20 08:44:44;;;;;;;15.33;11.63;;;19.80;99.90;;;;;;5029261;28;20472;-75
2022/05/20 08:47:20;;;;;;;18.40;11.87;;;20.00;99.90;;;;;;5028862;28;20457;-75
2022/05/20 08:49:47;;;;;;;11.40;10.03;;;20.30;99.90;;;;;;5030626;28;20879;-74
2022/05/20 08:52:14;;;;;;;13.17;10.50;;;20.50;99.90;;;;;;5029781;28;20523;-75
2022/05/20 08:54:42;;;;;;;15.40;9.87;;;20.80;99.90;;;;;;5028772;28;20480;-74
2022/05/20 08:57:23;;;;;;;14.10;10.17;;;20.90;99.90;;;;;;5029229;28;20876;-74
2022/05/20 08:59:50;;;;;;;13.27;11.07;;;20.90;99.90;;;;;;5030057;28;20453;-74
2022/05/20 09:02:18;;;;;;;13.20;10.03;;;20.90;99.90;;;;;;5027140;28;20477;-74
2022/05/20 09:04:44;;;;;;;11.43;9.23;;;21.00;99.90;;;;;;5027674;28;20453;-75
2022/05/20 09:07:14;;;;;;;9.70;8.80;;;21.10;99.90;;;;;;5026708;28;20461;-75
2022/05/20 09:09:45;;;;;;;11.50;10.10;;;21.20;99.90;;;;;;5030239;28;20457;-76
2022/05/20 09:12:25;;;;;;;13.10;9.83;;;21.20;99.90;;;;;;5029398;28;20480;-75
2022/05/20 09:17:46;;;;;;;12.30;10.43;;;20.90;99.90;;;;;;5029601;28;20461;-75
2022/05/20 09:20:17;;;;;;;10.13;9.13;;;20.90;99.90;;;;;;5029440;28;20454;-75
2022/05/20 09:22:55;;;;;;;13.73;10.07;;;20.90;99.90;;;;;;5028930;28;20550;-75
2022/05/20 09:25:26;;;;;;;17.20;9.33;;;21.30;99.90;;;;;;5028209;28;20882;-75
2022/05/20 09:27:58;;;;;;;11.67;8.70;;;21.60;99.90;;;;;;5028142;28;20472;-75
2022/05/20 09:30:36;;;;;;;11.50;9.93;;;21.70;99.90;;;;;;5029538;28;20450;-75
2022/05/20 09:33:12;;;;;;;10.13;9.03;;;21.80;99.90;;;;;;5029612;28;20544;-75
2022/05/20 09:35:39;;;;;;;9.77;7.90;;;22.10;99.90;;;;;;5029795;28;20453;-74
2022/05/20 09:38:26;;;;;;;10.90;8.90;;;22.40;99.90;;;;;;5028519;28;20508;-75
2022/05/20 09:40:54;;;;;;;8.77;7.93;;;22.70;99.90;;;;;;5029530;28;20464;-75
2022/05/20 09:43:27;;;;;;;11.30;7.17;;;22.60;99.90;;;;;;5024697;28;21016;-75
2022/05/20 09:45:56;;;;;;;7.90;7.17;;;22.60;99.90;;;;;;5026648;28;20489;-75
2022/05/20 09:48:26;;;;;;;17.50;7.30;;;22.40;99.90;;;;;;5026594;28;20920;-74
2022/05/20 09:51:05;;;;;;;12.33;6.90;;;22.40;99.90;;;;;;5029231;28;20810;-75
2022/05/20 09:53:36;;;;;;;9.40;8.00;;;22.50;99.90;;;;;;5025767;28;20461;-75
2022/05/20 09:56:23;;;;;;;10.93;8.47;;;22.50;99.90;;;;;;5028655;28;20461;-75
2022/05/20 09:59:15;;;;;;;14.43;8.00;;;22.60;99.90;;;;;;5027604;28;21257;-75
2022/05/20 10:01:53;;;;;;;12.70;7.40;;;23.00;99.90;;;;;;5025350;28;20907;-75
2022/05/20 10:04:30;;;;;;;9.17;8.17;;;22.90;99.90;;;;;;5026981;28;20453;-74
2022/05/20 10:07:00;;;;;;;11.23;8.00;;;22.90;99.90;;;;;;5026471;28;21007;-72
2022/05/20 10:09:35;;;;;;;11.70;8.50;;;23.20;99.90;;;;;;5027990;28;20512;-75
2022/05/20 10:12:09;;;;;;;10.57;8.20;;;23.20;99.90;;;;;;5027316;28;20496;-74
2022/05/20 10:14:44;;;;;;;13.27;7.70;;;23.10;99.90;;;;;;5026891;28;20438;-75
2022/05/20 10:17:21;;;;;;;9.77;8.00;;;23.30;99.90;;;;;;5027753;28;20484;-75
2022/05/20 10:19:53;;;;;;;11.70;8.60;;;23.40;99.90;;;;;;5028232;28;20453;-74
2022/05/20 10:22:25;;;;;;;9.27;8.27;;;23.70;99.90;;;;;;5028063;28;20517;-74
2022/05/20 10:25:00;;;;;;;10.33;8.43;;;23.50;99.90;;;;;;5027354;28;20450;-75
2022/05/20 10:27:33;;;;;;;17.53;10.20;;;23.40;99.90;;;;;;5026551;28;20869;-74
2022/05/20 10:32:57;;;;;;;14.10;9.03;;;23.40;99.90;;;;;;5027007;28;20472;-75
2022/05/20 10:35:30;;;;;;;14.47;10.23;;;23.30;99.90;;;;;;5022232;28;20508;-74
2022/05/20 10:38:24;;;;;;;10.67;8.90;;;23.30;99.90;;;;;;5027027;28;20453;-75
2022/05/20 10:40:59;;;;;;;11.40;10.13;;;23.40;99.90;;;;;;4996792;28;20456;-74
2022/05/20 10:48:34;;;;;;;16.93;10.23;;;23.60;99.90;;;;;;5026316;28;20429;-74
2022/05/20 10:49:18;;;;;;;10.97;9.77;;;23.90;99.90;;;;;;4997988;28;20800;-74
2022/05/20 10:52:05;;;;;;;13.20;10.20;;;24.10;99.90;;;;;;5026596;28;20487;-74
2022/05/20 10:54:44;;;;;;;14.03;10.60;;;24.10;99.90;;;;;;5025489;28;20875;-74
2022/05/20 10:57:28;;;;;;;10.83;9.47;;;24.10;99.90;;;;;;5025963;28;21761;-75
2022/05/20 11:00:07;;;;;;;13.53;11.33;;;24.30;99.90;;;;;;5027255;28;20449;-74
2022/05/20 11:02:55;;;;;;;15.20;12.40;;;24.20;99.90;;;;;;5022717;28;20485;-74
2022/05/20 11:05:45;;;;;;;13.50;11.13;;;23.90;99.90;;;;;;5022942;28;20903;-74
2022/05/20 11:08:25;;;;;;;14.53;11.03;;;24.30;99.90;;;;;;5023974;28;20507;-74
2022/05/20 11:11:03;;;;;;;14.97;11.90;;;24.50;99.90;;;;;;5025325;28;20445;-74
2022/05/20 11:13:53;;;;;;;14.20;10.93;;;24.40;99.90;;;;;;5026251;28;20464;-74
2022/05/20 11:16:39;;;;;;;19.80;11.03;;;24.30;99.90;;;;;;5027476;28;20493;-74
2022/05/20 11:19:24;;;;;;;14.60;11.57;;;24.60;99.90;;;;;;5026562;28;20457;-74
2022/05/20 11:22:13;;;;;;;14.63;13.03;;;24.70;99.90;;;;;;5024901;28;20488;-74
2022/05/20 11:24:51;;;;;;;14.00;12.50;;;24.90;99.90;;;;;;5025929;28;22034;-75
2022/05/20 11:27:41;;;;;;;15.90;13.50;;;25.10;99.90;;;;;;5027168;28;20865;-74
2022/05/20 11:30:17;;;;;;;19.37;13.80;;;25.50;99.90;;;;;;5024777;28;20522;-73
2022/05/20 11:33:02;;;;;;;23.77;14.07;;;25.60;99.90;;;;;;5025356;28;20523;-75
2022/05/20 11:35:59;;;;;;;25.00;13.27;;;25.60;99.90;;;;;;5030265;28;20441;-74
2022/05/20 11:38:50;;;;;;;16.33;13.83;;;25.70;99.90;;;;;;5029305;28;20485;-74
2022/05/20 11:41:32;;;;;;;18.57;15.30;;;25.90;99.90;;;;;;5030098;28;20457;-75
2022/05/20 11:44:35;;;;;;;18.13;14.10;;;25.80;99.90;;;;;;5030115;28;20492;-73
2022/05/20 11:47:18;;;;;;;19.67;14.33;;;25.90;99.90;;;;;;5019856;28;20812;-73
2022/05/20 11:49:59;;;;;;;16.70;14.90;;;25.80;99.90;;;;;;5030654;28;20449;-74
2022/05/20 11:52:45;;;;;;;20.63;16.20;;;25.50;99.90;;;;;;5030493;28;20981;-73
2022/05/20 11:55:18;;;;;;;22.67;16.83;;;25.40;99.90;;;;;;5029461;28;20453;-74
2022/05/20 11:57:49;;;;;;;21.07;16.53;;;25.60;99.90;;;;;;5030118;28;20448;-75
2022/05/20 12:00:19;;;;;;;25.63;17.33;;;25.60;99.90;;;;;;5030770;28;20449;-74
2022/05/20 12:02:50;;;;;;;21.20;16.43;;;25.40;99.90;;;;;;5029063;28;20485;-73
2022/05/20 12:05:22;;;;;;;24.83;17.43;;;25.30;99.90;;;;;;5028295;28;21233;-74
2022/05/20 12:07:49;;;;;;;22.93;17.73;;;25.10;99.90;;;;;;5030738;28;20531;-74
2022/05/20 12:10:32;;;;;;;26.97;19.93;;;25.00;99.90;;;;;;5029812;28;20511;-73
2022/05/20 12:13:11;;;;;;;26.97;17.90;;;24.80;99.90;;;;;;5017707;28;20530;-75
2022/05/20 12:15:41;;;;;;;28.33;19.23;;;24.70;99.90;;;;;;5027740;28;20485;-74
2022/05/20 12:24:27;;;;;;;26.40;18.60;;;24.70;99.90;;;;;;5028061;28;20445;-74
2022/05/20 12:26:55;;;;;;;24.33;17.63;;;24.80;99.90;;;;;;5028661;28;20790;-74
2022/05/20 12:29:46;;;;;;;25.73;18.07;;;25.00;99.90;;;;;;5030231;28;20449;-74
2022/05/20 12:32:44;;;;;;;23.67;18.47;;;25.00;99.90;;;;;;5028912;28;20973;-75
2022/05/20 12:35:14;;;;;;;26.70;19.27;;;25.10;99.90;;;;;;5028773;28;20457;-75
2022/05/20 12:38:22;;;;;;;26.03;18.53;;;25.10;99.90;;;;;;5029039;28;20450;-75
2022/05/20 12:40:55;;;;;;;28.37;17.90;;;25.10;99.90;;;;;;5029121;28;20515;-74
2022/05/20 12:43:41;;;;;;;26.00;18.70;;;25.20;99.90;;;;;;5021265;28;20489;-75
2022/05/20 12:46:17;;;;;;;27.40;19.17;;;25.30;99.90;;;;;;5025990;28;20456;-75
2022/05/20 12:48:44;;;;;;;19.83;16.57;;;25.40;99.90;;;;;;5030945;28;20831;-75
2022/05/20 12:51:11;;;;;;;25.13;15.10;;;25.50;99.90;;;;;;5033100;28;20845;-74
2022/05/20 12:53:39;;;;;;;16.83;13.23;;;25.60;99.90;;;;;;5030784;28;20451;-75
2022/05/20 12:56:06;;;;;;;17.47;12.90;;;25.80;99.90;;;;;;5028678;28;20527;-74
2022/05/20 12:58:34;;;;;;;30.10;13.47;;;26.00;99.90;;;;;;5020615;28;20446;-75
2022/05/20 13:01:04;;;;;;;17.00;13.17;;;26.10;99.90;;;;;;5029291;28;21019;-74
2022/05/20 13:03:34;;;;;;;17.47;12.00;;;26.20;99.90;;;;;;5031342;28;20489;-75
2022/05/20 13:06:04;;;;;;;15.07;12.10;;;26.30;99.90;;;;;;5032691;28;20861;-75
2022/05/20 13:08:34;;;;;;;14.93;12.90;;;26.50;99.90;;;;;;5016573;28;20525;-75
2022/05/20 13:11:08;;;;;;;19.93;13.70;;;26.40;99.90;;;;;;5022862;28;20956;-74
2022/05/20 13:13:35;;;;;;;18.40;13.13;;;26.20;99.90;;;;;;5028811;28;20470;-75
2022/05/20 13:16:04;;;;;;;20.90;12.23;;;26.00;99.90;;;;;;5018332;28;20465;-74
2022/05/20 13:18:33;;;;;;;24.83;13.10;;;25.70;99.90;;;;;;5026544;28;20470;-74
2022/05/20 13:21:02;;;;;;;23.03;12.40;;;25.50;99.90;;;;;;5029942;28;20949;-75
2022/05/20 13:23:31;;;;;;;18.23;12.20;;;25.30;99.90;;;;;;5030833;28;20488;-76
2022/05/20 13:25:58;;;;;;;17.00;12.70;;;25.10;99.90;;;;;;5017465;28;20454;-76